Time;durP1;ratioP1;P1;durP2;ratioP2;P2;SDS_P1;SDS_P2;PMS_P1;PMS_P2;Temp;Humidity;BMP_temperature;BMP_pressure;BME280_temperature;BME280_humidity;BME280_pressure;Samples;Min_cycle;Max_cycle;Signal;HPM_P1;HPM_P2
2022/07/13 00:02:00;;;;;;;8.00;4.70;;;23.00;99.90;;;;;;5033359;28;20187;-76
2022/07/13 00:04:26;;;;;;;6.37;4.30;;;23.00;99.90;;;;;;5033370;28;20559;-76
2022/07/13 00:06:52;;;;;;;8.23;4.90;;;23.00;99.90;;;;;;5032987;28;20188;-76
2022/07/13 00:09:18;;;;;;;8.20;4.87;;;22.90;99.90;;;;;;5033609;28;20187;-76
2022/07/13 00:11:43;;;;;;;5.83;4.93;;;22.90;99.90;;;;;;5033220;28;20266;-76
2022/07/13 00:14:09;;;;;;;7.50;5.20;;;22.90;99.90;;;;;;5033189;28;20307;-76
2022/07/13 00:16:35;;;;;;;6.00;4.40;;;22.90;99.90;;;;;;5033027;28;20178;-76
2022/07/13 00:19:01;;;;;;;6.37;4.40;;;23.00;99.90;;;;;;5033208;28;20283;-76
2022/07/13 00:21:26;;;;;;;7.37;4.80;;;23.00;99.90;;;;;;5036232;28;20669;-76
2022/07/13 00:23:52;;;;;;;6.00;4.53;;;23.00;99.90;;;;;;5036803;28;20583;-76
2022/07/13 00:26:18;;;;;;;8.73;5.00;;;22.90;99.90;;;;;;5036517;28;20182;-76
2022/07/13 00:28:44;;;;;;;9.43;4.70;;;22.90;99.90;;;;;;5036565;28;20209;-76
2022/07/13 00:31:09;;;;;;;11.33;4.37;;;22.90;99.90;;;;;;5036692;28;20521;-75
2022/07/13 00:33:35;;;;;;;5.40;4.30;;;22.90;99.90;;;;;;5036560;28;20219;-76
2022/07/13 00:36:01;;;;;;;5.53;4.90;;;22.90;99.90;;;;;;5036477;28;20172;-76
2022/07/13 00:38:27;;;;;;;6.40;5.10;;;22.90;99.90;;;;;;5036417;28;20195;-76
2022/07/13 00:40:52;;;;;;;5.00;4.50;;;23.00;99.90;;;;;;5036508;28;20624;-76
2022/07/13 00:43:18;;;;;;;6.17;4.63;;;23.00;99.90;;;;;;5036539;28;20207;-75
2022/07/13 00:45:44;;;;;;;7.10;4.03;;;23.00;99.90;;;;;;5036260;28;20207;-76
2022/07/13 00:48:10;;;;;;;6.27;5.13;;;23.00;99.90;;;;;;5036440;28;20578;-76
2022/07/13 00:50:37;;;;;;;5.80;4.27;;;23.00;99.90;;;;;;5036422;28;20230;-75
2022/07/13 00:53:04;;;;;;;9.00;4.90;;;23.00;99.90;;;;;;5036274;28;20497;-76
2022/07/13 00:55:32;;;;;;;6.70;4.40;;;22.90;99.90;;;;;;5036171;28;20414;-74
2022/07/13 00:57:58;;;;;;;6.93;4.77;;;22.80;99.90;;;;;;5035918;28;20439;-76
2022/07/13 01:00:24;;;;;;;8.30;5.03;;;22.80;99.90;;;;;;5036178;28;20513;-75
2022/07/13 01:02:50;;;;;;;6.10;4.20;;;22.70;99.90;;;;;;5036170;28;20501;-76
2022/07/13 01:05:16;;;;;;;5.70;4.63;;;22.60;99.90;;;;;;5036067;28;20833;-76
2022/07/13 01:07:42;;;;;;;5.27;4.37;;;22.50;99.90;;;;;;5035830;28;20199;-76
2022/07/13 01:10:09;;;;;;;5.20;4.20;;;22.30;99.90;;;;;;5035954;28;20707;-76
2022/07/13 01:12:36;;;;;;;6.10;4.53;;;22.30;99.90;;;;;;5035864;28;20219;-76
2022/07/13 01:15:03;;;;;;;5.73;4.20;;;22.30;99.90;;;;;;5035877;28;20990;-76
2022/07/13 01:17:31;;;;;;;6.80;4.00;;;22.20;99.90;;;;;;5035534;28;20979;-76
2022/07/13 01:19:58;;;;;;;5.83;4.07;;;22.20;99.90;;;;;;5035791;28;20675;-76
2022/07/13 01:22:36;;;;;;;5.73;4.03;;;22.20;99.90;;;;;;5035891;28;20461;-76
2022/07/13 01:25:05;;;;;;;5.00;3.70;;;22.20;99.90;;;;;;5035821;28;20482;-76
2022/07/13 01:27:36;;;;;;;6.00;3.30;;;22.20;99.90;;;;;;5035357;28;20446;-75
2022/07/13 01:30:03;;;;;;;4.27;3.37;;;22.20;99.90;;;;;;5035684;28;20513;-76
2022/07/13 01:32:29;;;;;;;5.27;3.33;;;22.10;99.90;;;;;;5035039;28;20509;-75
2022/07/13 01:34:55;;;;;;;5.33;3.77;;;22.10;99.90;;;;;;5035565;28;20415;-76
2022/07/13 01:37:21;;;;;;;5.03;3.60;;;22.10;99.90;;;;;;5035083;28;20260;-76
2022/07/13 01:39:47;;;;;;;7.23;2.93;;;22.10;99.90;;;;;;5035463;28;20825;-76
2022/07/13 01:42:12;;;;;;;5.57;3.23;;;22.20;99.90;;;;;;5035451;28;20180;-76
2022/07/13 01:44:38;;;;;;;5.50;3.03;;;22.20;99.90;;;;;;5035559;28;20183;-76
2022/07/13 01:47:08;;;;;;;5.33;3.30;;;22.20;99.90;;;;;;5035079;28;20266;-76
2022/07/13 01:49:34;;;;;;;4.77;2.90;;;22.20;99.90;;;;;;5035170;28;20742;-76
2022/07/13 01:52:00;;;;;;;5.30;3.67;;;22.20;99.90;;;;;;5035149;28;20556;-76
2022/07/13 01:54:29;;;;;;;4.80;3.30;;;22.20;99.90;;;;;;5035155;28;20410;-75
2022/07/13 01:56:54;;;;;;;5.30;3.00;;;22.20;99.90;;;;;;5034935;28;20647;-76
2022/07/13 01:59:20;;;;;;;3.77;2.80;;;22.20;99.90;;;;;;5035002;28;20418;-76
2022/07/13 02:01:46;;;;;;;4.60;3.27;;;22.20;99.90;;;;;;5035078;28;20674;-75
2022/07/13 02:04:12;;;;;;;5.07;3.40;;;22.20;99.90;;;;;;5034794;28;20831;-76
2022/07/13 02:06:37;;;;;;;5.60;3.00;;;22.20;99.90;;;;;;5034741;28;20241;-76
2022/07/13 02:09:03;;;;;;;4.10;2.97;;;22.30;99.90;;;;;;5034862;28;20625;-76
2022/07/13 02:11:29;;;;;;;6.10;3.30;;;22.30;99.90;;;;;;5034946;28;20266;-76
2022/07/13 02:13:55;;;;;;;5.90;3.10;;;22.30;99.90;;;;;;5034625;28;20560;-76
2022/07/13 02:16:21;;;;;;;5.17;3.67;;;22.40;99.90;;;;;;5034618;28;20665;-76
2022/07/13 02:18:47;;;;;;;4.27;3.40;;;22.40;99.90;;;;;;5034579;28;20200;-76
2022/07/13 02:21:13;;;;;;;5.07;3.43;;;22.30;99.90;;;;;;5034738;28;20677;-76
2022/07/13 02:23:39;;;;;;;6.97;3.40;;;22.30;99.90;;;;;;5034676;28;20433;-76
2022/07/13 02:26:06;;;;;;;6.90;3.70;;;22.30;99.90;;;;;;5034296;28;20460;-76
2022/07/13 02:28:32;;;;;;;6.17;3.70;;;22.30;99.90;;;;;;5034471;28;20512;-76
2022/07/13 02:30:58;;;;;;;5.60;3.23;;;22.40;99.90;;;;;;5034458;28;20427;-76
2022/07/13 02:33:23;;;;;;;4.53;2.90;;;22.40;99.90;;;;;;5034283;28;20468;-76
2022/07/13 02:35:49;;;;;;;3.80;2.60;;;22.40;99.90;;;;;;5034224;28;20552;-75
2022/07/13 02:38:15;;;;;;;6.20;2.80;;;22.30;99.90;;;;;;5034284;28;20751;-76
2022/07/13 02:40:41;;;;;;;5.07;3.00;;;22.30;99.90;;;;;;5034267;28;20587;-76
2022/07/13 02:43:07;;;;;;;4.67;2.63;;;22.30;99.90;;;;;;5033486;28;20194;-76
2022/07/13 02:45:33;;;;;;;4.13;2.50;;;22.30;99.90;;;;;;5034114;28;20190;-75
2022/07/13 02:47:59;;;;;;;4.17;2.77;;;22.30;99.90;;;;;;5034024;28;20442;-76
2022/07/13 02:50:25;;;;;;;4.23;2.90;;;22.40;99.90;;;;;;5034131;28;20277;-76
2022/07/13 02:52:54;;;;;;;4.00;2.93;;;22.40;99.90;;;;;;5034098;28;20218;-76
2022/07/13 02:55:19;;;;;;;5.90;2.70;;;22.40;99.90;;;;;;5033969;28;20218;-75
2022/07/13 02:57:46;;;;;;;3.90;3.17;;;22.40;99.90;;;;;;5033783;28;20965;-76
2022/07/13 03:00:12;;;;;;;5.27;2.63;;;22.40;99.90;;;;;;5034068;28;20617;-76
2022/07/13 03:02:38;;;;;;;3.20;2.40;;;22.40;99.90;;;;;;5034164;28;20422;-76
2022/07/13 03:05:05;;;;;;;4.00;2.70;;;22.30;99.90;;;;;;5033913;28;20457;-76
2022/07/13 03:07:30;;;;;;;3.80;2.30;;;22.30;99.90;;;;;;5033628;28;20453;-76
2022/07/13 03:09:57;;;;;;;4.23;2.20;;;22.30;99.90;;;;;;5033782;28;20422;-76
2022/07/13 03:12:23;;;;;;;4.27;2.53;;;22.30;99.90;;;;;;5033793;28;20235;-76
2022/07/13 03:14:49;;;;;;;3.83;2.73;;;22.30;99.90;;;;;;5033850;28;20462;-76
2022/07/13 03:17:16;;;;;;;3.20;2.47;;;22.30;99.90;;;;;;5017254;28;20469;-76
2022/07/13 03:19:41;;;;;;;4.80;2.47;;;22.30;99.90;;;;;;5033714;28;20426;-76
2022/07/13 03:22:07;;;;;;;3.50;2.23;;;22.30;99.90;;;;;;5034105;28;20211;-76
2022/07/13 03:24:34;;;;;;;4.00;2.40;;;22.40;99.90;;;;;;5033641;28;20241;-75
2022/07/13 03:27:00;;;;;;;3.83;2.90;;;22.40;99.90;;;;;;5033398;28;20191;-76
2022/07/13 03:29:26;;;;;;;3.70;2.30;;;22.50;99.90;;;;;;5033766;28;20434;-76
2022/07/13 03:31:52;;;;;;;4.40;2.77;;;22.50;99.90;;;;;;5033493;28;20445;-76
2022/07/13 03:34:18;;;;;;;3.50;2.23;;;22.50;99.90;;;;;;5033721;28;20206;-76
2022/07/13 03:36:44;;;;;;;4.50;2.90;;;22.60;99.90;;;;;;5033333;28;20297;-76
2022/07/13 03:39:09;;;;;;;7.70;2.80;;;22.50;99.90;;;;;;5033576;28;20878;-76
2022/07/13 03:41:35;;;;;;;5.73;3.70;;;22.50;99.90;;;;;;5033619;28;20183;-76
2022/07/13 03:44:01;;;;;;;6.50;3.33;;;22.50;99.90;;;;;;5033612;28;20551;-76
2022/07/13 03:46:27;;;;;;;4.20;2.90;;;22.50;99.90;;;;;;5033136;28;20191;-75
2022/07/13 03:48:53;;;;;;;9.30;3.93;;;22.50;99.90;;;;;;5033524;28;20469;-75
2022/07/13 03:51:18;;;;;;;6.10;2.80;;;22.40;99.90;;;;;;5033489;28;20191;-76
2022/07/13 03:53:44;;;;;;;4.50;2.67;;;22.40;99.90;;;;;;5033794;28;20306;-76
2022/07/13 03:56:10;;;;;;;5.13;3.03;;;22.40;99.90;;;;;;5037119;28;20180;-76
2022/07/13 03:58:36;;;;;;;4.50;2.80;;;22.40;99.90;;;;;;5037288;28;20204;-76
2022/07/13 04:01:02;;;;;;;4.60;3.03;;;22.50;99.90;;;;;;5037236;28;20179;-76
2022/07/13 04:03:28;;;;;;;5.60;3.00;;;22.50;99.90;;;;;;5037319;28;20191;-76
2022/07/13 04:05:53;;;;;;;4.80;3.03;;;22.50;99.90;;;;;;5036955;28;20198;-75
2022/07/13 04:08:19;;;;;;;6.27;3.97;;;22.50;99.90;;;;;;5037081;28;20200;-76
2022/07/13 04:10:45;;;;;;;5.13;3.03;;;22.60;99.90;;;;;;5037087;28;20563;-76
2022/07/13 04:13:10;;;;;;;4.00;3.40;;;22.50;99.90;;;;;;5037066;28;20215;-76
2022/07/13 04:15:36;;;;;;;4.80;3.30;;;22.50;99.90;;;;;;5039640;23;20318;-76
2022/07/13 04:18:02;;;;;;;4.00;3.20;;;22.50;99.90;;;;;;5017280;28;20199;-76
2022/07/13 04:20:28;;;;;;;4.87;4.03;;;22.50;99.90;;;;;;5017447;28;20226;-76
2022/07/13 04:22:54;;;;;;;5.47;3.90;;;22.50;99.90;;;;;;5017254;28;20267;-76
2022/07/13 04:25:19;;;;;;;5.07;3.70;;;22.50;99.90;;;;;;5017026;28;20188;-76
2022/07/13 04:27:45;;;;;;;6.27;4.17;;;22.50;99.90;;;;;;5016825;28;20683;-76
2022/07/13 04:30:11;;;;;;;5.67;3.80;;;22.50;99.90;;;;;;5016921;28;20554;-76
2022/07/13 04:32:37;;;;;;;4.23;3.03;;;22.50;99.90;;;;;;5016969;28;20239;-76
2022/07/13 04:35:03;;;;;;;8.80;4.13;;;22.50;99.90;;;;;;5017083;28;20180;-76
2022/07/13 04:37:28;;;;;;;4.67;3.40;;;22.50;99.90;;;;;;5016459;28;20193;-76
2022/07/13 04:39:54;;;;;;;4.87;3.57;;;22.50;99.90;;;;;;5016840;28;20415;-76
2022/07/13 04:42:20;;;;;;;4.60;3.67;;;22.50;99.90;;;;;;5016994;28;20238;-76
2022/07/13 04:44:46;;;;;;;4.73;3.80;;;22.50;99.90;;;;;;5016724;28;20190;-76
2022/07/13 04:47:11;;;;;;;4.33;3.13;;;22.60;99.90;;;;;;5016331;28;20196;-76
2022/07/13 04:49:37;;;;;;;4.80;3.13;;;22.60;99.90;;;;;;5016865;28;20176;-76
2022/07/13 04:52:03;;;;;;;4.33;3.03;;;22.60;99.90;;;;;;5016698;28;20176;-76
2022/07/13 04:54:30;;;;;;;4.00;3.13;;;22.50;99.90;;;;;;5016631;28;20183;-76
2022/07/13 04:56:56;;;;;;;4.17;3.13;;;22.50;99.90;;;;;;5016143;28;20423;-76
2022/07/13 04:59:22;;;;;;;5.43;3.10;;;22.40;99.90;;;;;;5016340;28;20188;-76
2022/07/13 05:01:47;;;;;;;7.07;3.60;;;22.20;99.90;;;;;;5016355;28;20181;-76
2022/07/13 05:04:13;;;;;;;4.93;3.17;;;22.10;99.90;;;;;;5016520;28;20192;-76
2022/07/13 05:06:39;;;;;;;4.27;3.17;;;22.10;99.90;;;;;;5015259;28;20176;-76
2022/07/13 05:09:05;;;;;;;4.90;3.33;;;22.00;99.90;;;;;;5016227;28;20196;-76
2022/07/13 05:11:31;;;;;;;5.57;3.50;;;21.90;99.90;;;;;;5016274;28;20184;-76
2022/07/13 05:13:57;;;;;;;4.70;3.00;;;21.90;99.90;;;;;;5016123;28;20470;-75
2022/07/13 05:16:22;;;;;;;7.83;3.43;;;21.90;99.90;;;;;;5015815;28;20823;-76
2022/07/13 05:18:48;;;;;;;5.90;4.03;;;21.90;99.90;;;;;;5016066;28;20207;-76
2022/07/13 05:21:15;;;;;;;5.53;3.97;;;21.90;99.90;;;;;;5016147;28;20185;-75
2022/07/13 05:23:40;;;;;;;4.10;3.47;;;21.90;99.90;;;;;;5016126;28;20199;-76
2022/07/13 05:26:06;;;;;;;7.50;3.73;;;21.90;99.90;;;;;;5015780;28;20419;-76
2022/07/13 05:28:32;;;;;;;6.13;3.80;;;21.90;99.90;;;;;;5016003;28;20211;-75
2022/07/13 05:30:58;;;;;;;5.97;3.67;;;22.00;99.90;;;;;;5015933;28;20184;-76
2022/07/13 05:33:25;;;;;;;5.33;3.30;;;21.90;99.90;;;;;;5015786;28;20215;-76
2022/07/13 05:35:50;;;;;;;5.00;3.53;;;21.90;99.90;;;;;;5015701;28;20450;-75
2022/07/13 05:38:16;;;;;;;4.97;3.60;;;22.00;99.90;;;;;;5015639;28;20544;-76
2022/07/13 05:40:42;;;;;;;6.10;4.37;;;22.00;99.90;;;;;;5015751;28;20180;-76
2022/07/13 05:43:08;;;;;;;6.80;3.73;;;22.10;99.90;;;;;;5015577;28;20280;-76
2022/07/13 05:45:33;;;;;;;6.60;3.47;;;22.20;99.90;;;;;;5015555;28;20380;-75
2022/07/13 05:47:59;;;;;;;4.77;3.33;;;22.30;99.90;;;;;;5015424;28;20208;-76
2022/07/13 05:50:26;;;;;;;5.80;3.10;;;22.40;99.90;;;;;;5015758;28;20188;-76
2022/07/13 05:52:52;;;;;;;5.17;3.40;;;22.50;99.90;;;;;;5015333;28;20558;-76
2022/07/13 05:55:18;;;;;;;8.40;3.60;;;22.60;99.90;;;;;;5015478;28;20518;-76
2022/07/13 05:57:46;;;;;;;4.90;3.20;;;22.70;99.90;;;;;;5014891;28;20200;-75
2022/07/13 06:00:13;;;;;;;4.13;3.07;;;22.80;99.90;;;;;;5015456;28;20760;-76
2022/07/13 06:02:40;;;;;;;5.03;3.10;;;22.90;99.90;;;;;;5015355;28;20891;-76
2022/07/13 06:05:06;;;;;;;4.87;3.50;;;23.10;99.90;;;;;;5015306;28;20423;-76
2022/07/13 06:07:32;;;;;;;5.60;3.20;;;23.20;99.90;;;;;;5014859;28;20458;-76
2022/07/13 06:10:01;;;;;;;4.87;3.20;;;23.30;99.90;;;;;;5015251;28;20481;-76
2022/07/13 06:12:28;;;;;;;5.00;3.57;;;23.40;99.90;;;;;;5014957;28;20211;-76
2022/07/13 06:14:54;;;;;;;6.30;3.13;;;23.60;99.90;;;;;;5015073;28;20923;-77
2022/07/13 06:17:21;;;;;;;5.97;3.93;;;23.80;99.90;;;;;;5014617;28;20439;-75
2022/07/13 06:19:47;;;;;;;5.47;3.13;;;24.00;99.90;;;;;;5015154;28;20431;-75
2022/07/13 06:22:12;;;;;;;5.13;3.43;;;24.20;99.90;;;;;;5014977;28;20438;-76
2022/07/13 06:24:38;;;;;;;4.53;2.97;;;24.40;99.90;;;;;;5015193;28;20468;-76
2022/07/13 06:27:04;;;;;;;4.53;3.10;;;24.50;99.90;;;;;;5014506;28;20918;-75
2022/07/13 06:29:30;;;;;;;4.60;3.13;;;24.60;99.90;;;;;;5014945;28;20222;-76
2022/07/13 06:31:56;;;;;;;7.80;3.20;;;24.70;99.90;;;;;;5014695;28;20271;-76
2022/07/13 06:34:21;;;;;;;4.30;3.10;;;24.80;99.90;;;;;;5014843;28;20180;-76
2022/07/13 06:36:47;;;;;;;7.83;3.30;;;25.00;99.90;;;;;;5014325;28;20557;-76
2022/07/13 06:39:13;;;;;;;5.00;3.00;;;24.90;99.90;;;;;;5014543;28;20189;-76
2022/07/13 06:41:39;;;;;;;4.97;2.97;;;25.00;99.90;;;;;;5014599;28;20187;-76
2022/07/13 06:44:05;;;;;;;4.50;3.10;;;25.00;99.90;;;;;;5014604;28;20611;-76
2022/07/13 06:46:31;;;;;;;3.80;2.73;;;25.10;99.90;;;;;;5014328;28;20211;-76
2022/07/13 06:48:57;;;;;;;6.60;2.30;;;25.10;99.90;;;;;;5014457;28;20831;-76
2022/07/13 06:51:23;;;;;;;6.03;3.10;;;25.20;99.90;;;;;;5014513;28;20618;-76
2022/07/13 06:53:49;;;;;;;3.67;2.47;;;25.40;99.90;;;;;;5014257;28;20208;-76
2022/07/13 06:56:15;;;;;;;3.27;2.63;;;25.60;99.90;;;;;;5014479;28;20180;-76
2022/07/13 06:58:40;;;;;;;4.77;2.53;;;25.80;99.90;;;;;;5014251;28;20587;-76
2022/07/13 07:01:06;;;;;;;11.93;3.80;;;26.00;99.90;;;;;;5014339;28;20518;-76
2022/07/13 07:03:32;;;;;;;3.70;2.53;;;26.20;99.90;;;;;;5014135;28;20188;-76
2022/07/13 07:05:58;;;;;;;7.23;3.00;;;26.30;99.90;;;;;;5014071;28;20222;-76
2022/07/13 07:08:24;;;;;;;8.03;3.27;;;26.50;99.90;;;;;;5013998;28;20620;-77
2022/07/13 07:10:50;;;;;;;5.60;2.83;;;26.70;99.90;;;;;;5014256;28;20184;-76
2022/07/13 07:13:16;;;;;;;4.57;2.90;;;26.80;99.90;;;;;;5014067;28;20215;-76
2022/07/13 07:15:41;;;;;;;3.70;2.73;;;27.00;99.90;;;;;;5013755;28;20887;-76
2022/07/13 07:18:07;;;;;;;4.33;2.40;;;27.10;99.90;;;;;;5013974;28;20246;-76
2022/07/13 07:20:33;;;;;;;5.60;2.63;;;27.30;99.90;;;;;;5014295;28;20200;-76
2022/07/13 07:23:00;;;;;;;4.20;2.60;;;27.30;99.90;;;;;;5013900;28;20572;-76
2022/07/13 07:25:26;;;;;;;4.03;2.90;;;27.40;99.90;;;;;;5014087;28;20184;-76
2022/07/13 07:27:52;;;;;;;5.40;3.00;;;27.50;99.90;;;;;;5013667;28;20850;-76
2022/07/13 07:30:18;;;;;;;5.33;2.63;;;27.40;99.90;;;;;;5019733;28;20423;-76
2022/07/13 07:32:44;;;;;;;6.23;2.53;;;27.30;99.90;;;;;;5020426;28;20207;-76
2022/07/13 07:35:10;;;;;;;3.40;2.43;;;27.20;99.90;;;;;;5020706;28;20431;-76
2022/07/13 07:37:38;;;;;;;3.50;2.47;;;27.30;99.90;;;;;;5019890;28;20208;-77
2022/07/13 07:40:06;;;;;;;5.20;2.80;;;27.30;99.90;;;;;;5020497;28;20913;-76
2022/07/13 07:42:32;;;;;;;3.80;3.00;;;27.40;99.90;;;;;;5020346;28;20896;-76
2022/07/13 07:44:58;;;;;;;4.40;2.80;;;27.30;99.90;;;;;;5020462;28;20419;-76
2022/07/13 07:47:25;;;;;;;4.13;2.57;;;27.30;99.90;;;;;;5020041;28;20204;-75
2022/07/13 07:49:54;;;;;;;4.00;2.77;;;27.10;99.90;;;;;;5020325;28;20238;-76
2022/07/13 07:52:21;;;;;;;3.87;2.93;;;27.00;99.90;;;;;;5020167;28;20549;-76
2022/07/13 07:54:48;;;;;;;5.27;2.47;;;26.80;99.90;;;;;;5020283;28;20797;-77
2022/07/13 07:57:14;;;;;;;7.53;2.80;;;26.60;99.90;;;;;;5019925;28;20445;-76
2022/07/13 07:59:41;;;;;;;5.67;3.30;;;26.10;99.90;;;;;;5020256;28;20426;-77
2022/07/13 08:02:08;;;;;;;4.97;2.90;;;25.50;99.90;;;;;;5020406;28;20476;-76
2022/07/13 08:04:34;;;;;;;5.60;3.60;;;24.90;99.90;;;;;;5020103;28;20570;-77
2022/07/13 08:07:00;;;;;;;7.33;2.83;;;24.50;99.90;;;;;;5019947;28;20410;-76
2022/07/13 08:09:27;;;;;;;3.90;2.97;;;24.10;99.90;;;;;;5020198;28;20669;-76
2022/07/13 08:11:52;;;;;;;6.70;3.50;;;23.80;99.90;;;;;;5020414;28;20180;-76
2022/07/13 08:14:18;;;;;;;4.53;3.13;;;23.90;99.90;;;;;;5019946;28;20520;-76
2022/07/13 08:16:44;;;;;;;6.53;3.17;;;24.10;99.90;;;;;;5019901;28;20279;-76
2022/07/13 08:19:10;;;;;;;4.37;3.00;;;24.30;99.90;;;;;;5019901;28;20534;-76
2022/07/13 08:21:37;;;;;;;7.23;3.20;;;24.60;99.90;;;;;;5020145;28;20267;-76
2022/07/13 08:24:03;;;;;;;6.50;3.20;;;24.90;99.90;;;;;;5020033;28;20427;-75
2022/07/13 08:26:29;;;;;;;5.90;3.27;;;25.10;99.90;;;;;;5019819;28;20821;-76
2022/07/13 08:28:57;;;;;;;5.30;2.97;;;25.80;99.90;;;;;;5019945;28;20469;-76
2022/07/13 08:31:23;;;;;;;4.20;2.73;;;27.70;99.90;;;;;;5020090;28;20427;-76
2022/07/13 08:39:23;;;;;;;8.20;2.37;;;30.20;99.90;;;;;;5038011;28;20454;-77
2022/07/13 08:41:50;;;;;;;4.43;3.10;;;30.10;99.90;;;;;;5016021;28;20422;-76
2022/07/13 08:44:16;;;;;;;3.50;2.67;;;30.40;99.90;;;;;;5016762;28;20430;-77
2022/07/13 08:46:43;;;;;;;7.10;2.90;;;30.10;99.10;;;;;;5016510;28;20434;-76
2022/07/13 08:49:09;;;;;;;7.10;2.77;;;30.00;99.90;;;;;;5016590;28;20443;-76
2022/07/13 08:51:36;;;;;;;3.20;2.30;;;29.80;98.70;;;;;;5016573;28;20850;-76
2022/07/13 08:54:04;;;;;;;5.60;2.60;;;29.70;96.40;;;;;;5016714;28;20466;-76
2022/07/13 08:56:31;;;;;;;4.60;2.57;;;29.40;94.70;;;;;;5016359;28;20993;-77
2022/07/13 08:58:57;;;;;;;3.50;2.60;;;29.10;93.80;;;;;;5016332;28;20455;-77
2022/07/13 09:01:23;;;;;;;3.47;2.50;;;29.60;94.70;;;;;;5016572;28;20422;-77
2022/07/13 09:03:49;;;;;;;3.93;2.20;;;30.40;93.10;;;;;;5016395;28;20190;-77
2022/07/13 09:06:41;;;;;;;4.30;2.33;;;30.70;92.30;;;;;;5016169;28;20191;-77
2022/07/13 09:09:07;;;;;;;3.50;2.60;;;30.20;89.00;;;;;;5016184;28;20493;-77
2022/07/13 09:11:34;;;;;;;3.47;2.17;;;29.90;90.30;;;;;;5016325;28;20464;-77
2022/07/13 09:14:00;;;;;;;3.13;2.43;;;30.10;91.00;;;;;;5016158;28;20466;-76
2022/07/13 09:16:27;;;;;;;4.27;2.80;;;30.30;88.20;;;;;;5016189;28;20454;-77
2022/07/13 09:19:00;;;;;;;4.50;2.50;;;30.30;86.40;;;;;;5016000;28;20200;-77
2022/07/13 09:21:29;;;;;;;4.87;3.03;;;30.00;90.60;;;;;;5016232;28;20419;-76
2022/07/13 09:23:57;;;;;;;4.57;2.87;;;29.90;89.10;;;;;;5015853;28;20431;-76
2022/07/13 09:26:23;;;;;;;4.00;2.33;;;30.00;90.90;;;;;;5016128;28;20419;-77
2022/07/13 09:28:50;;;;;;;4.13;2.60;;;30.00;85.80;;;;;;5015836;28;20453;-77
2022/07/13 09:31:17;;;;;;;3.57;2.20;;;30.10;87.30;;;;;;5016060;28;20795;-76
2022/07/13 09:33:46;;;;;;;3.40;2.23;;;30.10;84.80;;;;;;5015802;28;20467;-77
2022/07/13 09:36:23;;;;;;;3.93;2.83;;;30.80;83.90;;;;;;5015737;28;20426;-76
2022/07/13 09:38:52;;;;;;;4.10;2.60;;;31.20;74.90;;;;;;5015723;28;20438;-77
2022/07/13 09:41:25;;;;;;;8.20;2.73;;;31.10;76.00;;;;;;5015809;28;20419;-76
2022/07/13 09:46:50;;;;;;;5.30;2.50;;;31.20;76.10;;;;;;5033389;28;20418;-77
2022/07/13 09:49:17;;;;;;;3.33;2.60;;;31.10;73.70;;;;;;5015897;28;20942;-76
2022/07/13 09:51:46;;;;;;;4.87;2.63;;;31.30;71.30;;;;;;5015225;28;20426;-76
2022/07/13 09:54:12;;;;;;;3.77;2.70;;;31.50;71.10;;;;;;5015447;28;20554;-77
2022/07/13 09:56:50;;;;;;;5.57;3.10;;;31.30;70.70;;;;;;5015354;28;20419;-77
2022/07/13 09:59:18;;;;;;;4.07;3.30;;;31.10;72.10;;;;;;5015408;28;20937;-76
2022/07/13 10:01:45;;;;;;;3.00;2.50;;;30.80;71.40;;;;;;5015434;28;20557;-77
2022/07/13 10:04:13;;;;;;;4.77;2.60;;;30.60;70.90;;;;;;5015280;28;21004;-76
2022/07/13 10:06:39;;;;;;;3.43;2.97;;;30.20;70.40;;;;;;5014965;28;20436;-77
2022/07/13 10:09:05;;;;;;;4.10;2.80;;;29.80;70.10;;;;;;5015052;28;20541;-77
2022/07/13 10:11:31;;;;;;;7.00;2.87;;;29.60;69.60;;;;;;5015260;28;20454;-76
2022/07/13 10:13:57;;;;;;;4.30;3.00;;;29.60;73.50;;;;;;5015022;28;20211;-76
2022/07/13 10:16:27;;;;;;;4.17;2.67;;;29.50;73.10;;;;;;5038688;23;20231;-84
2022/07/13 10:18:54;;;;;;;3.40;2.50;;;29.50;73.80;;;;;;5052252;28;20410;-84
2022/07/13 10:21:57;;;;;;;4.27;2.60;;;29.50;74.60;;;;;;5050969;28;20402;-84
2022/07/13 10:24:23;;;;;;;3.60;2.90;;;29.50;72.30;;;;;;5052219;28;20935;-84
2022/07/13 10:26:49;;;;;;;5.50;2.93;;;29.40;74.10;;;;;;5051936;28;20426;-84
2022/07/13 10:29:15;;;;;;;3.53;2.60;;;29.40;72.30;;;;;;5052638;28;20179;-85
2022/07/13 10:31:42;;;;;;;4.73;2.67;;;29.40;72.60;;;;;;5052188;28;20804;-84
2022/07/13 10:34:09;;;;;;;4.30;2.80;;;29.50;72.90;;;;;;5050755;28;20290;-83
2022/07/13 10:36:52;;;;;;;4.57;2.50;;;29.90;72.60;;;;;;5051752;28;20440;-85
2022/07/13 10:39:23;;;;;;;3.80;2.80;;;30.10;73.70;;;;;;5051931;28;20905;-84
2022/07/13 10:41:59;;;;;;;4.07;3.20;;;30.20;73.90;;;;;;5050544;28;20426;-84
2022/07/13 10:44:41;;;;;;;4.00;3.30;;;30.50;71.40;;;;;;5051843;28;20447;-84
2022/07/13 10:47:09;;;;;;;4.90;2.83;;;30.70;73.90;;;;;;5049981;28;20465;-85
2022/07/13 10:49:36;;;;;;;4.20;3.03;;;30.80;72.30;;;;;;5050325;28;20411;-84
2022/07/13 10:52:20;;;;;;;5.87;3.10;;;30.70;72.40;;;;;;5051772;28;20406;-85
2022/07/13 10:55:05;;;;;;;4.10;2.73;;;30.70;71.70;;;;;;5051547;28;20406;-84
2022/07/13 10:57:33;;;;;;;5.47;3.20;;;30.70;74.50;;;;;;5049858;28;20465;-84
2022/07/13 11:00:18;;;;;;;4.40;2.90;;;30.60;75.60;;;;;;5051672;28;20928;-85
2022/07/13 11:03:05;;;;;;;4.23;2.73;;;30.90;76.00;;;;;;5051618;28;20477;-85
2022/07/13 11:05:35;;;;;;;4.30;2.90;;;31.40;77.10;;;;;;5050803;28;20434;-84
2022/07/13 11:08:15;;;;;;;4.23;2.73;;;31.60;72.60;;;;;;5051389;28;20416;-84
2022/07/13 11:10:41;;;;;;;6.33;3.23;;;31.70;72.60;;;;;;5050029;28;20445;-84
2022/07/13 11:13:09;;;;;;;4.23;3.07;;;31.90;74.00;;;;;;5050202;28;20910;-84
2022/07/13 11:15:55;;;;;;;8.30;2.80;;;31.80;74.20;;;;;;5014657;28;1050392;-84
2022/07/13 11:18:23;;;;;;;3.80;2.93;;;31.70;71.00;;;;;;5052060;28;20262;-84
2022/07/13 11:20:57;;;;;;;5.23;2.83;;;31.50;72.10;;;;;;5052114;28;20953;-84
2022/07/13 11:26:28;;;;;;;6.00;2.70;;;31.60;74.70;;;;;;5051981;28;20472;-84
2022/07/13 11:29:14;;;;;;;3.23;2.43;;;31.60;75.40;;;;;;5051830;28;20418;-85
2022/07/13 11:31:40;;;;;;;6.07;2.90;;;31.90;74.20;;;;;;5051862;28;20417;-85
2022/07/13 11:34:06;;;;;;;8.50;2.70;;;32.00;72.20;;;;;;5051769;28;20466;-84
2022/07/13 11:36:32;;;;;;;5.10;2.90;;;32.20;70.60;;;;;;5051361;28;20670;-85
2022/07/13 11:38:58;;;;;;;3.03;2.10;;;32.30;70.80;;;;;;5050565;28;20795;-84
2022/07/13 11:41:24;;;;;;;4.30;2.00;;;32.10;70.60;;;;;;5051736;28;20414;-84
2022/07/13 11:43:51;;;;;;;3.30;2.20;;;32.30;70.90;;;;;;5050482;28;20214;-84
2022/07/13 11:46:24;;;;;;;4.00;2.27;;;32.30;70.50;;;;;;5050014;28;20203;-82
2022/07/13 11:49:07;;;;;;;4.70;2.60;;;32.50;69.70;;;;;;5050537;28;20430;-83
2022/07/13 11:51:33;;;;;;;3.30;2.37;;;32.50;69.40;;;;;;5051691;28;20585;-82
2022/07/13 11:54:09;;;;;;;3.40;2.10;;;32.40;68.50;;;;;;5051525;28;20506;-82
2022/07/13 11:56:35;;;;;;;5.37;2.23;;;32.40;70.40;;;;;;5051288;28;20517;-81
2022/07/13 11:59:01;;;;;;;4.03;2.10;;;32.20;69.40;;;;;;5051940;28;20452;-82
2022/07/13 12:01:28;;;;;;;3.77;2.30;;;32.30;69.00;;;;;;5051664;28;20406;-82
2022/07/13 12:03:54;;;;;;;4.90;2.83;;;32.70;71.40;;;;;;5050272;28;20429;-83
2022/07/13 12:06:26;;;;;;;3.80;2.17;;;32.90;68.10;;;;;;5049724;28;20450;-82
2022/07/13 12:08:52;;;;;;;6.57;2.00;;;33.10;67.80;;;;;;5051774;28;20172;-82
2022/07/13 12:11:18;;;;;;;3.70;2.10;;;33.20;70.10;;;;;;5050223;28;21016;-82
2022/07/13 12:13:45;;;;;;;4.67;2.40;;;33.30;70.60;;;;;;5051417;28;20207;-83
2022/07/13 12:16:12;;;;;;;3.20;1.77;;;32.90;68.30;;;;;;5053589;28;20462;-83
2022/07/13 12:19:02;;;;;;;3.53;1.90;;;32.70;65.10;;;;;;5055414;28;20415;-81
2022/07/13 12:21:28;;;;;;;2.97;1.57;;;32.60;68.00;;;;;;5053879;28;20441;-82
2022/07/13 12:23:54;;;;;;;2.40;1.70;;;32.90;65.10;;;;;;5053977;28;20527;-82
2022/07/13 12:26:20;;;;;;;3.90;1.93;;;32.80;66.30;;;;;;5054511;28;20456;-82
2022/07/13 12:28:45;;;;;;;2.93;1.80;;;32.90;67.50;;;;;;5053819;28;20182;-82
2022/07/13 12:31:11;;;;;;;3.37;1.93;;;32.90;63.20;;;;;;5054701;28;20180;-82
2022/07/13 12:33:42;;;;;;;4.13;1.97;;;33.00;63.00;;;;;;5054715;28;20195;-83
2022/07/13 12:36:09;;;;;;;3.77;2.17;;;33.10;63.70;;;;;;5054405;28;20198;-83
2022/07/13 12:38:34;;;;;;;3.40;1.90;;;33.30;64.00;;;;;;5054596;28;20772;-82
2022/07/13 12:41:01;;;;;;;3.37;1.87;;;33.40;63.00;;;;;;5053388;28;20442;-82
2022/07/13 12:43:29;;;;;;;3.43;1.70;;;33.20;63.40;;;;;;5054667;28;20734;-82
2022/07/13 12:46:02;;;;;;;3.40;1.90;;;33.50;62.20;;;;;;5055194;28;20449;-82
2022/07/13 12:48:33;;;;;;;3.87;1.70;;;33.80;59.60;;;;;;5068865;28;20440;-83
2022/07/13 12:51:00;;;;;;;2.50;1.60;;;33.70;59.20;;;;;;5063795;28;20940;-83
2022/07/13 12:53:44;;;;;;;4.90;2.00;;;33.70;60.00;;;;;;5062944;28;20469;-82
2022/07/13 12:56:10;;;;;;;2.70;1.77;;;34.00;60.30;;;;;;5062891;28;20514;-83
2022/07/13 12:58:40;;;;;;;3.57;1.80;;;34.20;59.90;;;;;;5062035;28;20954;-82